DIRECCIÓN GENERAL DE AERONÁUTICA CIVIL
DIRECCIÓN METEOROLÓGICA DE CHILE
INFORMACIÓN METAR Y TAF

FIR SANTIAGO

Estación: SCSE
METAR SCSE 301800Z 29010KT CAVOK 17/10 Q1014=

TAF SCSE 301613Z 3018/3118 30010KT CAVOK TX19/3018Z TN11/3110Z BECMG 3102/3104 VRB02KT TEMPO 3107/3114 11005KT BKN015 BECMG 3114/3116 31010KT SCT020 BECMG 3116/3118 CAVOK=

Estación: SCER
NIL=

NIL=

Estación: SCRD
METAR SCRD 301800Z 17015KT CAVOK 18/07 Q1016=

TAF SCRD 301032Z 3012/3024 33005KT CAVOK TX18/3018Z TN10/3012Z BECMG 3015/3017 22012KT=

Estación: SCVM
METAR SCVM 301800Z 24013KT CAVOK 19/10 Q1015=

TAF SCVM 301614Z 3018/3118 24012KT CAVOK TX23/3019Z TN10/3110Z TEMPO 3018/3023 33012KT BECMG 3101/3103 15005KT TEMPO 3108/3112 00000KT BKN012 BECMG 3114/3116 33010KT=

Estación: SCTB
METAR SCTB 301800Z 22003KT 7000 BKN070 SCT200 21/09 Q1016=

TAF SCTB 301030Z 3012/3024 VRB02KT 9999 BKN045 TX23/3018Z TN12/3012Z BECMG 3015/3017 21008KT CAVOK=

Estación: SCEL
METAR SCEL 301800Z VRB06KT CAVOK 22/04 Q1015 NOSIG=

TAF SCEL 301614Z 3018/3118 20012KT CAVOK TX23/3019Z TN10/3110Z BECMG 3102/3103 17005KT TEMPO 3107/3113 VRB02KT 6000 BECMG 3116/3118 20012KT=

Estación: SCSN
METAR SCSN 301800Z 24019KT CAVOK 18/09 Q1017=

TAF SCSN 301031Z 3012/3024 18004KT CAVOK TX20/3018Z TN10/3012Z BECMG 3015/3017 22010KT=

Estación: SCRG
METAR SCRG 301800Z 15014KT CAVOK 19/07 Q1016=

TAF SCRG 301033Z 3012/3024 VRB02KT 9999 SCT042 TX22/3018Z TN11/3012Z BECMG 3016/3018 18010KT CAVOK=

Estación: SCIC
METAR SCIC 301800Z 21010KT 170V250 CAVOK 20/04 Q1017=

TAF SCIC 301033Z 3012/3024 18003KT CAVOK TX22/3018Z TN04/3012Z BECMG 3017/3019 23010KT=

Estación: SCCH
METAR SCCH 301800Z 21007KT 9999 BKN040 17/07 Q1020=

TAF SCCH 301033Z 3012/3024 VRB02KT CAVOK TX17/3018Z TN05/3012Z TEMPO 3012/3015 SCT030 BECMG 3017/3019 20010KT=

Estación: SCIE
METAR SCIE 301800Z 25011KT 9999 SCT030 16/08 Q1021=

TAF SCIE 301615Z 3018/3118 23012KT 9999 SCT030 TX17/3018Z TN10/3110Z TEMPO 3020/3024 CAVOK BECMG 3101/3103 13005KT BECMG 3104/3106 CAVOK BECMG 3110/3112 23012KT=

Estación: SCGE
METAR SCGE 301800Z 27005KT 9999 BKN040 15/08 Q1020=

TAF SCGE 301034Z 3012/3024 VRB02KT 9999 SCT015 BKN020 TX17/3018Z TN10/3012Z TEMPO 3012/3015 7000 -SHRA BKN012 OVC015 BECMG 3018/3020 23010KT BKN030=


Volver